sensor_id;sensor_type;location;lat;lon;timestamp;temperature;humidity
13405;DHT22;6773;51.192;7.024;2022-09-09T00:04:24;16.00;99.90
13405;DHT22;6773;51.192;7.024;2022-09-09T00:07:07;16.00;99.90
13405;DHT22;6773;51.192;7.024;2022-09-09T00:09:46;16.00;99.90
13405;DHT22;6773;51.192;7.024;2022-09-09T00:14:59;15.90;99.90
13405;DHT22;6773;51.192;7.024;2022-09-09T00:18:16;15.80;99.90
13405;DHT22;6773;51.192;7.024;2022-09-09T00:20:53;15.70;99.90
13405;DHT22;6773;51.192;7.024;2022-09-09T00:23:32;15.70;99.90
13405;DHT22;6773;51.192;7.024;2022-09-09T00:26:30;15.60;99.90
13405;DHT22;6773;51.192;7.024;2022-09-09T00:31:36;15.60;99.90
13405;DHT22;6773;51.192;7.024;2022-09-09T00:34:22;15.60;99.90
13405;DHT22;6773;51.192;7.024;2022-09-09T00:36:50;15.60;99.90
13405;DHT22;6773;51.192;7.024;2022-09-09T00:39:37;15.50;99.90
13405;DHT22;6773;51.192;7.024;2022-09-09T00:42:24;15.50;99.90
13405;DHT22;6773;51.192;7.024;2022-09-09T00:55:39;15.50;99.90
13405;DHT22;6773;51.192;7.024;2022-09-09T00:58:07;15.60;99.90
13405;DHT22;6773;51.192;7.024;2022-09-09T01:00:46;15.60;99.90
13405;DHT22;6773;51.192;7.024;2022-09-09T01:03:35;15.60;99.90
13405;DHT22;6773;51.192;7.024;2022-09-09T01:11:30;15.60;99.90
13405;DHT22;6773;51.192;7.024;2022-09-09T01:14:14;15.60;99.90
13405;DHT22;6773;51.192;7.024;2022-09-09T01:16:44;15.60;99.90
13405;DHT22;6773;51.192;7.024;2022-09-09T01:19:30;15.50;99.90
13405;DHT22;6773;51.192;7.024;2022-09-09T01:27:40;15.50;99.90
13405;DHT22;6773;51.192;7.024;2022-09-09T01:30:15;15.40;99.90
13405;DHT22;6773;51.192;7.024;2022-09-09T01:32:54;15.40;99.90
13405;DHT22;6773;51.192;7.024;2022-09-09T01:40:21;15.30;99.90
13405;DHT22;6773;51.192;7.024;2022-09-09T01:42:47;15.30;99.90
13405;DHT22;6773;51.192;7.024;2022-09-09T01:47:39;15.30;99.90
13405;DHT22;6773;51.192;7.024;2022-09-09T01:50:07;15.30;99.90
13405;DHT22;6773;51.192;7.024;2022-09-09T01:52:35;15.20;99.90
13405;DHT22;6773;51.192;7.024;2022-09-09T01:55:01;15.20;99.90
13405;DHT22;6773;51.192;7.024;2022-09-09T01:57:29;15.20;99.90
13405;DHT22;6773;51.192;7.024;2022-09-09T02:00:08;15.20;99.90
13405;DHT22;6773;51.192;7.024;2022-09-09T02:02:44;15.10;99.90
13405;DHT22;6773;51.192;7.024;2022-09-09T02:07:51;15.10;99.90
13405;DHT22;6773;51.192;7.024;2022-09-09T02:10:24;15.10;99.90
13405;DHT22;6773;51.192;7.024;2022-09-09T02:13:13;15.10;99.90
13405;DHT22;6773;51.192;7.024;2022-09-09T02:18:49;15.10;99.90
13405;DHT22;6773;51.192;7.024;2022-09-09T02:21:17;15.10;99.90
13405;DHT22;6773;51.192;7.024;2022-09-09T02:23:44;15.10;99.90
13405;DHT22;6773;51.192;7.024;2022-09-09T02:26:12;15.10;99.90
13405;DHT22;6773;51.192;7.024;2022-09-09T02:28:46;15.10;99.90
13405;DHT22;6773;51.192;7.024;2022-09-09T02:31:14;15.20;99.90
13405;DHT22;6773;51.192;7.024;2022-09-09T02:33:43;15.10;99.90
13405;DHT22;6773;51.192;7.024;2022-09-09T02:36:11;15.10;99.90
13405;DHT22;6773;51.192;7.024;2022-09-09T02:38:45;15.10;99.90
13405;DHT22;6773;51.192;7.024;2022-09-09T02:41:11;15.20;99.90
13405;DHT22;6773;51.192;7.024;2022-09-09T02:43:37;15.20;99.90
13405;DHT22;6773;51.192;7.024;2022-09-09T02:52:07;15.20;99.90
13405;DHT22;6773;51.192;7.024;2022-09-09T02:54:35;15.20;99.90
13405;DHT22;6773;51.192;7.024;2022-09-09T02:57:22;15.20;99.90
13405;DHT22;6773;51.192;7.024;2022-09-09T02:59:49;15.20;99.90
13405;DHT22;6773;51.192;7.024;2022-09-09T03:02:15;15.20;99.90
13405;DHT22;6773;51.192;7.024;2022-09-09T03:04:41;15.20;99.90
13405;DHT22;6773;51.192;7.024;2022-09-09T03:07:12;15.20;99.90
13405;DHT22;6773;51.192;7.024;2022-09-09T03:09:38;15.20;99.90
13405;DHT22;6773;51.192;7.024;2022-09-09T03:14:30;15.20;99.90
13405;DHT22;6773;51.192;7.024;2022-09-09T03:16:56;15.20;99.90
13405;DHT22;6773;51.192;7.024;2022-09-09T03:19:26;15.20;99.90
13405;DHT22;6773;51.192;7.024;2022-09-09T03:21:53;15.20;99.90
13405;DHT22;6773;51.192;7.024;2022-09-09T03:24:19;15.20;99.90
13405;DHT22;6773;51.192;7.024;2022-09-09T03:26:45;15.20;99.90
13405;DHT22;6773;51.192;7.024;2022-09-09T03:29:12;15.20;99.90
13405;DHT22;6773;51.192;7.024;2022-09-09T03:31:38;15.20;99.90
13405;DHT22;6773;51.192;7.024;2022-09-09T03:36:30;15.20;99.90
13405;DHT22;6773;51.192;7.024;2022-09-09T03:38:57;15.20;99.90
13405;DHT22;6773;51.192;7.024;2022-09-09T03:41:23;15.20;99.90
13405;DHT22;6773;51.192;7.024;2022-09-09T03:43:53;15.20;99.90
13405;DHT22;6773;51.192;7.024;2022-09-09T03:46:20;15.20;99.90
13405;DHT22;6773;51.192;7.024;2022-09-09T03:48:46;15.20;99.90
13405;DHT22;6773;51.192;7.024;2022-09-09T03:53:38;15.20;99.90
13405;DHT22;6773;51.192;7.024;2022-09-09T03:56:05;15.10;99.90
13405;DHT22;6773;51.192;7.024;2022-09-09T03:58:33;15.10;99.90
13405;DHT22;6773;51.192;7.024;2022-09-09T04:03:25;15.20;99.90
13405;DHT22;6773;51.192;7.024;2022-09-09T04:05:52;15.20;99.90
13405;DHT22;6773;51.192;7.024;2022-09-09T04:08:18;15.20;99.90
13405;DHT22;6773;51.192;7.024;2022-09-09T04:10:45;15.10;99.90
13405;DHT22;6773;51.192;7.024;2022-09-09T04:13:12;15.10;99.90
13405;DHT22;6773;51.192;7.024;2022-09-09T04:15:39;15.10;99.90
13405;DHT22;6773;51.192;7.024;2022-09-09T04:18:05;15.20;99.90
13405;DHT22;6773;51.192;7.024;2022-09-09T04:22:57;15.20;99.90
13405;DHT22;6773;51.192;7.024;2022-09-09T04:25:23;15.20;99.90
13405;DHT22;6773;51.192;7.024;2022-09-09T04:27:54;15.20;99.90
13405;DHT22;6773;51.192;7.024;2022-09-09T04:30:20;15.20;99.90
13405;DHT22;6773;51.192;7.024;2022-09-09T04:32:46;15.30;99.90
13405;DHT22;6773;51.192;7.024;2022-09-09T04:35:12;15.30;99.90
13405;DHT22;6773;51.192;7.024;2022-09-09T04:37:37;15.30;99.90
13405;DHT22;6773;51.192;7.024;2022-09-09T04:40:03;15.30;99.90
13405;DHT22;6773;51.192;7.024;2022-09-09T04:42:29;15.30;99.90
13405;DHT22;6773;51.192;7.024;2022-09-09T04:44:55;15.30;99.90
13405;DHT22;6773;51.192;7.024;2022-09-09T04:47:20;15.30;99.90
13405;DHT22;6773;51.192;7.024;2022-09-09T04:49:46;15.30;99.90
13405;DHT22;6773;51.192;7.024;2022-09-09T04:52:12;15.30;99.90
13405;DHT22;6773;51.192;7.024;2022-09-09T04:57:04;15.30;99.90
13405;DHT22;6773;51.192;7.024;2022-09-09T04:59:30;15.30;99.90
13405;DHT22;6773;51.192;7.024;2022-09-09T05:01:56;15.30;99.90
13405;DHT22;6773;51.192;7.024;2022-09-09T05:04:21;15.30;99.90
13405;DHT22;6773;51.192;7.024;2022-09-09T05:06:47;15.30;99.90
13405;DHT22;6773;51.192;7.024;2022-09-09T05:09:13;15.30;99.90
13405;DHT22;6773;51.192;7.024;2022-09-09T05:11:39;15.30;99.90
13405;DHT22;6773;51.192;7.024;2022-09-09T05:14:05;15.30;99.90
13405;DHT22;6773;51.192;7.024;2022-09-09T05:18:57;15.30;99.90
13405;DHT22;6773;51.192;7.024;2022-09-09T05:21:24;15.40;99.90
13405;DHT22;6773;51.192;7.024;2022-09-09T05:26:20;15.40;99.90
13405;DHT22;6773;51.192;7.024;2022-09-09T05:28:46;15.40;99.90
13405;DHT22;6773;51.192;7.024;2022-09-09T05:31:13;15.40;99.90
13405;DHT22;6773;51.192;7.024;2022-09-09T05:33:41;15.40;99.90
13405;DHT22;6773;51.192;7.024;2022-09-09T05:36:10;15.40;99.90
13405;DHT22;6773;51.192;7.024;2022-09-09T05:38:39;15.40;99.90
13405;DHT22;6773;51.192;7.024;2022-09-09T05:41:06;15.50;99.90
13405;DHT22;6773;51.192;7.024;2022-09-09T05:43:32;15.40;99.90
13405;DHT22;6773;51.192;7.024;2022-09-09T05:46:21;15.50;99.90
13405;DHT22;6773;51.192;7.024;2022-09-09T05:48:48;15.50;99.90
13405;DHT22;6773;51.192;7.024;2022-09-09T05:51:18;15.50;99.90
13405;DHT22;6773;51.192;7.024;2022-09-09T05:53:45;15.50;99.90
13405;DHT22;6773;51.192;7.024;2022-09-09T05:56:16;15.50;99.90
13405;DHT22;6773;51.192;7.024;2022-09-09T05:58:45;15.50;99.90
13405;DHT22;6773;51.192;7.024;2022-09-09T06:01:23;15.50;99.90
13405;DHT22;6773;51.192;7.024;2022-09-09T06:03:50;15.50;99.90
13405;DHT22;6773;51.192;7.024;2022-09-09T06:06:18;15.50;99.90
13405;DHT22;6773;51.192;7.024;2022-09-09T06:08:46;15.50;99.90
13405;DHT22;6773;51.192;7.024;2022-09-09T06:11:22;15.50;99.90
13405;DHT22;6773;51.192;7.024;2022-09-09T06:13:49;15.50;99.90
13405;DHT22;6773;51.192;7.024;2022-09-09T06:16:20;15.50;99.90
13405;DHT22;6773;51.192;7.024;2022-09-09T06:23:40;15.50;99.90
13405;DHT22;6773;51.192;7.024;2022-09-09T06:26:09;15.50;99.90
13405;DHT22;6773;51.192;7.024;2022-09-09T06:28:36;15.50;99.90
13405;DHT22;6773;51.192;7.024;2022-09-09T06:31:04;15.50;99.90
13405;DHT22;6773;51.192;7.024;2022-09-09T06:33:35;15.50;99.90
13405;DHT22;6773;51.192;7.024;2022-09-09T06:36:03;15.50;99.90
13405;DHT22;6773;51.192;7.024;2022-09-09T06:40:57;15.50;99.90
13405;DHT22;6773;51.192;7.024;2022-09-09T06:43:24;15.50;99.90
13405;DHT22;6773;51.192;7.024;2022-09-09T06:45:58;15.50;99.90
13405;DHT22;6773;51.192;7.024;2022-09-09T06:48:25;15.50;99.90
13405;DHT22;6773;51.192;7.024;2022-09-09T06:51:07;15.60;99.90
13405;DHT22;6773;51.192;7.024;2022-09-09T06:53:35;15.60;99.90
13405;DHT22;6773;51.192;7.024;2022-09-09T06:56:30;15.60;99.90
13405;DHT22;6773;51.192;7.024;2022-09-09T06:58:57;15.60;99.90
13405;DHT22;6773;51.192;7.024;2022-09-09T07:01:28;15.70;99.90
13405;DHT22;6773;51.192;7.024;2022-09-09T07:03:56;15.70;99.90
13405;DHT22;6773;51.192;7.024;2022-09-09T07:06:29;15.70;99.90
13405;DHT22;6773;51.192;7.024;2022-09-09T07:09:00;15.80;99.90
13405;DHT22;6773;51.192;7.024;2022-09-09T07:11:40;15.90;99.90
13405;DHT22;6773;51.192;7.024;2022-09-09T07:14:07;16.00;99.90
13405;DHT22;6773;51.192;7.024;2022-09-09T07:16:33;16.20;99.90
13405;DHT22;6773;51.192;7.024;2022-09-09T07:19:00;16.30;99.90
13405;DHT22;6773;51.192;7.024;2022-09-09T07:21:28;16.40;99.90
13405;DHT22;6773;51.192;7.024;2022-09-09T07:23:55;16.30;99.90
13405;DHT22;6773;51.192;7.024;2022-09-09T07:26:23;16.30;99.90
13405;DHT22;6773;51.192;7.024;2022-09-09T07:33:42;16.40;99.90
13405;DHT22;6773;51.192;7.024;2022-09-09T07:36:09;16.40;99.90
13405;DHT22;6773;51.192;7.024;2022-09-09T07:38:43;16.40;99.90
13405;DHT22;6773;51.192;7.024;2022-09-09T07:41:12;16.40;99.90
13405;DHT22;6773;51.192;7.024;2022-09-09T07:43:42;16.50;99.90
13405;DHT22;6773;51.192;7.024;2022-09-09T07:46:09;16.60;99.90
13405;DHT22;6773;51.192;7.024;2022-09-09T07:48:35;16.70;99.90
13405;DHT22;6773;51.192;7.024;2022-09-09T07:51:10;16.70;99.90
13405;DHT22;6773;51.192;7.024;2022-09-09T07:53:37;16.80;99.90
13405;DHT22;6773;51.192;7.024;2022-09-09T07:56:09;16.90;99.90
13405;DHT22;6773;51.192;7.024;2022-09-09T07:58:36;17.00;99.90
13405;DHT22;6773;51.192;7.024;2022-09-09T08:01:13;17.10;99.90
13405;DHT22;6773;51.192;7.024;2022-09-09T08:03:39;17.20;99.90
13405;DHT22;6773;51.192;7.024;2022-09-09T08:06:08;17.30;99.90
13405;DHT22;6773;51.192;7.024;2022-09-09T08:08:35;17.40;99.90
13405;DHT22;6773;51.192;7.024;2022-09-09T08:11:14;17.40;99.90
13405;DHT22;6773;51.192;7.024;2022-09-09T08:13:42;17.60;99.90
13405;DHT22;6773;51.192;7.024;2022-09-09T08:16:10;17.70;99.90
13405;DHT22;6773;51.192;7.024;2022-09-09T08:18:37;17.70;99.90
13405;DHT22;6773;51.192;7.024;2022-09-09T08:21:21;17.60;99.90
13405;DHT22;6773;51.192;7.024;2022-09-09T08:23:47;17.50;99.90
13405;DHT22;6773;51.192;7.024;2022-09-09T08:26:20;17.40;99.90
13405;DHT22;6773;51.192;7.024;2022-09-09T08:28:48;17.20;99.90
13405;DHT22;6773;51.192;7.024;2022-09-09T08:31:25;17.30;99.90
13405;DHT22;6773;51.192;7.024;2022-09-09T08:33:53;17.30;99.90
13405;DHT22;6773;51.192;7.024;2022-09-09T08:36:21;17.30;99.90
13405;DHT22;6773;51.192;7.024;2022-09-09T08:38:52;17.30;99.90
13405;DHT22;6773;51.192;7.024;2022-09-09T08:44:39;17.30;99.90
13405;DHT22;6773;51.192;7.024;2022-09-09T08:52:27;17.70;99.90
13405;DHT22;6773;51.192;7.024;2022-09-09T08:54:59;17.70;99.90
13405;DHT22;6773;51.192;7.024;2022-09-09T08:57:29;17.70;99.90
13405;DHT22;6773;51.192;7.024;2022-09-09T08:59:56;17.70;99.90
13405;DHT22;6773;51.192;7.024;2022-09-09T09:02:42;17.80;99.90
13405;DHT22;6773;51.192;7.024;2022-09-09T09:05:36;17.80;99.90
13405;DHT22;6773;51.192;7.024;2022-09-09T09:11:04;17.80;99.90
13405;DHT22;6773;51.192;7.024;2022-09-09T09:13:54;17.70;99.90
13405;DHT22;6773;51.192;7.024;2022-09-09T09:16:36;17.80;99.90
13405;DHT22;6773;51.192;7.024;2022-09-09T09:19:04;17.90;99.90
13405;DHT22;6773;51.192;7.024;2022-09-09T09:21:48;18.00;99.90
13405;DHT22;6773;51.192;7.024;2022-09-09T09:27:34;18.20;99.90
13405;DHT22;6773;51.192;7.024;2022-09-09T09:30:22;18.30;99.90
13405;DHT22;6773;51.192;7.024;2022-09-09T09:33:18;18.30;99.90
13405;DHT22;6773;51.192;7.024;2022-09-09T09:35:42;18.30;99.90
13405;DHT22;6773;51.192;7.024;2022-09-09T09:38:19;18.30;99.90
13405;DHT22;6773;51.192;7.024;2022-09-09T09:40:58;18.30;99.90
13405;DHT22;6773;51.192;7.024;2022-09-09T09:43:35;18.20;99.90
13405;DHT22;6773;51.192;7.024;2022-09-09T09:46:03;18.30;99.90
13405;DHT22;6773;51.192;7.024;2022-09-09T09:48:29;18.30;99.90
13405;DHT22;6773;51.192;7.024;2022-09-09T09:51:09;18.20;99.90
13405;DHT22;6773;51.192;7.024;2022-09-09T09:53:37;18.30;99.90
13405;DHT22;6773;51.192;7.024;2022-09-09T09:56:06;18.30;99.90
13405;DHT22;6773;51.192;7.024;2022-09-09T10:01:31;18.50;99.90
13405;DHT22;6773;51.192;7.024;2022-09-09T10:04:12;18.60;99.90
13405;DHT22;6773;51.192;7.024;2022-09-09T10:06:38;18.60;99.90
13405;DHT22;6773;51.192;7.024;2022-09-09T10:09:22;18.90;99.90
13405;DHT22;6773;51.192;7.024;2022-09-09T10:14:31;19.10;99.90
13405;DHT22;6773;51.192;7.024;2022-09-09T10:20:22;19.00;99.90
13405;DHT22;6773;51.192;7.024;2022-09-09T10:23:04;18.80;99.90
13405;DHT22;6773;51.192;7.024;2022-09-09T10:25:51;18.90;99.90
13405;DHT22;6773;51.192;7.024;2022-09-09T10:28:30;19.10;99.90
13405;DHT22;6773;51.192;7.024;2022-09-09T10:34:25;19.90;99.90
13405;DHT22;6773;51.192;7.024;2022-09-09T10:36:57;19.50;99.90
13405;DHT22;6773;51.192;7.024;2022-09-09T10:39:36;19.40;99.90
13405;DHT22;6773;51.192;7.024;2022-09-09T10:42:14;19.40;99.90
13405;DHT22;6773;51.192;7.024;2022-09-09T10:49:50;19.50;99.90
13405;DHT22;6773;51.192;7.024;2022-09-09T10:55:06;19.60;99.90
13405;DHT22;6773;51.192;7.024;2022-09-09T10:57:47;19.40;99.90
13405;DHT22;6773;51.192;7.024;2022-09-09T11:00:19;19.30;99.90
13405;DHT22;6773;51.192;7.024;2022-09-09T11:02:56;19.30;99.90
13405;DHT22;6773;51.192;7.024;2022-09-09T11:08:04;19.20;99.90
13405;DHT22;6773;51.192;7.024;2022-09-09T11:10:58;19.30;99.90
13405;DHT22;6773;51.192;7.024;2022-09-09T11:13:31;19.40;99.90
13405;DHT22;6773;51.192;7.024;2022-09-09T11:16:28;19.50;99.90
13405;DHT22;6773;51.192;7.024;2022-09-09T11:19:16;19.50;99.90
13405;DHT22;6773;51.192;7.024;2022-09-09T11:21:46;19.50;99.90
13405;DHT22;6773;51.192;7.024;2022-09-09T11:24:29;19.40;99.90
13405;DHT22;6773;51.192;7.024;2022-09-09T11:27:15;19.40;99.90
13405;DHT22;6773;51.192;7.024;2022-09-09T11:30:17;19.40;99.90
13405;DHT22;6773;51.192;7.024;2022-09-09T11:38:26;19.20;99.90
13405;DHT22;6773;51.192;7.024;2022-09-09T11:41:03;19.10;99.90
13405;DHT22;6773;51.192;7.024;2022-09-09T11:43:37;18.90;99.90
13405;DHT22;6773;51.192;7.024;2022-09-09T11:46:04;18.70;99.90
13405;DHT22;6773;51.192;7.024;2022-09-09T11:48:43;18.40;99.90
13405;DHT22;6773;51.192;7.024;2022-09-09T11:53:52;17.90;99.90
13405;DHT22;6773;51.192;7.024;2022-09-09T11:56:30;18.00;99.90
13405;DHT22;6773;51.192;7.024;2022-09-09T11:59:00;18.20;99.90
13405;DHT22;6773;51.192;7.024;2022-09-09T12:01:39;18.30;99.90
13405;DHT22;6773;51.192;7.024;2022-09-09T12:07:49;18.40;99.90
13405;DHT22;6773;51.192;7.024;2022-09-09T12:09:55;18.40;99.90
13405;DHT22;6773;51.192;7.024;2022-09-09T12:12:26;18.40;99.90
13405;DHT22;6773;51.192;7.024;2022-09-09T12:17:45;18.50;99.90
13405;DHT22;6773;51.192;7.024;2022-09-09T12:20:14;18.50;99.90
13405;DHT22;6773;51.192;7.024;2022-09-09T12:28:02;18.50;99.90
13405;DHT22;6773;51.192;7.024;2022-09-09T12:30:53;18.50;99.90
13405;DHT22;6773;51.192;7.024;2022-09-09T12:33:20;18.40;99.90
13405;DHT22;6773;51.192;7.024;2022-09-09T12:35:54;18.50;99.90
13405;DHT22;6773;51.192;7.024;2022-09-09T12:38:40;18.70;99.90
13405;DHT22;6773;51.192;7.024;2022-09-09T12:41:06;18.90;99.90
13405;DHT22;6773;51.192;7.024;2022-09-09T12:43:31;19.00;99.90
13405;DHT22;6773;51.192;7.024;2022-09-09T12:46:03;19.10;99.90
13405;DHT22;6773;51.192;7.024;2022-09-09T12:48:38;19.20;99.90
13405;DHT22;6773;51.192;7.024;2022-09-09T12:51:37;19.60;99.90
13405;DHT22;6773;51.192;7.024;2022-09-09T12:54:03;19.60;99.90
13405;DHT22;6773;51.192;7.024;2022-09-09T12:56:31;19.70;99.90
13405;DHT22;6773;51.192;7.024;2022-09-09T12:58:58;19.80;99.90
13405;DHT22;6773;51.192;7.024;2022-09-09T13:01:29;19.80;99.90
13405;DHT22;6773;51.192;7.024;2022-09-09T13:03:56;19.40;99.90
13405;DHT22;6773;51.192;7.024;2022-09-09T13:06:30;19.10;99.90
13405;DHT22;6773;51.192;7.024;2022-09-09T13:08:59;18.90;99.90
13405;DHT22;6773;51.192;7.024;2022-09-09T13:11:42;18.70;99.90
13405;DHT22;6773;51.192;7.024;2022-09-09T13:14:35;17.60;99.90
13405;DHT22;6773;51.192;7.024;2022-09-09T13:17:05;16.90;99.90
13405;DHT22;6773;51.192;7.024;2022-09-09T13:19:37;16.60;99.90
13405;DHT22;6773;51.192;7.024;2022-09-09T13:22:24;16.70;99.90
13405;DHT22;6773;51.192;7.024;2022-09-09T13:27:40;17.10;99.90
13405;DHT22;6773;51.192;7.024;2022-09-09T13:30:26;17.30;99.90
13405;DHT22;6773;51.192;7.024;2022-09-09T13:33:18;17.50;99.90
13405;DHT22;6773;51.192;7.024;2022-09-09T13:35:55;17.50;99.90
13405;DHT22;6773;51.192;7.024;2022-09-09T13:38:22;17.50;99.90
13405;DHT22;6773;51.192;7.024;2022-09-09T13:43:23;17.40;99.90
13405;DHT22;6773;51.192;7.024;2022-09-09T13:48:22;17.70;99.90
13405;DHT22;6773;51.192;7.024;2022-09-09T13:51:01;17.80;99.90
13405;DHT22;6773;51.192;7.024;2022-09-09T13:53:30;18.20;99.90
13405;DHT22;6773;51.192;7.024;2022-09-09T13:55:56;18.80;99.90
13405;DHT22;6773;51.192;7.024;2022-09-09T13:58:22;19.40;99.90
13405;DHT22;6773;51.192;7.024;2022-09-09T14:00:50;19.40;99.90
13405;DHT22;6773;51.192;7.024;2022-09-09T14:05:44;19.40;99.90
13405;DHT22;6773;51.192;7.024;2022-09-09T14:08:16;19.50;99.90
13405;DHT22;6773;51.192;7.024;2022-09-09T14:10:45;19.80;99.90
13405;DHT22;6773;51.192;7.024;2022-09-09T14:13:11;19.80;99.90
13405;DHT22;6773;51.192;7.024;2022-09-09T14:15:37;19.60;99.90
13405;DHT22;6773;51.192;7.024;2022-09-09T14:18:03;19.30;99.90
13405;DHT22;6773;51.192;7.024;2022-09-09T14:20:29;19.00;99.90
13405;DHT22;6773;51.192;7.024;2022-09-09T14:22:54;18.90;99.90
13405;DHT22;6773;51.192;7.024;2022-09-09T14:25:23;18.80;99.90
13405;DHT22;6773;51.192;7.024;2022-09-09T14:27:48;18.80;99.90
13405;DHT22;6773;51.192;7.024;2022-09-09T14:30:16;18.90;99.90
13405;DHT22;6773;51.192;7.024;2022-09-09T14:32:42;19.10;99.90
13405;DHT22;6773;51.192;7.024;2022-09-09T14:35:08;19.20;99.90
13405;DHT22;6773;51.192;7.024;2022-09-09T14:37:33;19.20;99.90
13405;DHT22;6773;51.192;7.024;2022-09-09T14:39:59;19.10;99.90
13405;DHT22;6773;51.192;7.024;2022-09-09T14:42:25;18.90;99.90
13405;DHT22;6773;51.192;7.024;2022-09-09T14:44:52;18.60;99.90
13405;DHT22;6773;51.192;7.024;2022-09-09T14:49:43;18.10;99.90
13405;DHT22;6773;51.192;7.024;2022-09-09T14:52:09;18.00;99.90
13405;DHT22;6773;51.192;7.024;2022-09-09T14:54:35;17.90;99.90
13405;DHT22;6773;51.192;7.024;2022-09-09T14:59:27;17.60;99.90
13405;DHT22;6773;51.192;7.024;2022-09-09T15:04:19;17.30;99.90
13405;DHT22;6773;51.192;7.024;2022-09-09T15:06:46;17.20;99.90
13405;DHT22;6773;51.192;7.024;2022-09-09T15:09:14;17.20;99.90
13405;DHT22;6773;51.192;7.024;2022-09-09T15:11:40;17.10;99.90
13405;DHT22;6773;51.192;7.024;2022-09-09T15:14:07;16.70;99.90
13405;DHT22;6773;51.192;7.024;2022-09-09T15:16:33;16.30;99.90
13405;DHT22;6773;51.192;7.024;2022-09-09T15:19:00;16.20;99.90
13405;DHT22;6773;51.192;7.024;2022-09-09T15:21:28;16.20;99.90
13405;DHT22;6773;51.192;7.024;2022-09-09T15:23:55;16.20;99.90
13405;DHT22;6773;51.192;7.024;2022-09-09T15:26:22;16.20;99.90
13405;DHT22;6773;51.192;7.024;2022-09-09T15:28:48;16.30;99.90
13405;DHT22;6773;51.192;7.024;2022-09-09T15:31:23;16.50;99.90
13405;DHT22;6773;51.192;7.024;2022-09-09T15:33:54;16.60;99.90
13405;DHT22;6773;51.192;7.024;2022-09-09T15:36:27;16.60;99.90
13405;DHT22;6773;51.192;7.024;2022-09-09T15:41:23;16.80;99.90
13405;DHT22;6773;51.192;7.024;2022-09-09T15:43:51;16.90;99.90
13405;DHT22;6773;51.192;7.024;2022-09-09T15:48:44;17.00;99.90
13405;DHT22;6773;51.192;7.024;2022-09-09T15:51:10;16.90;99.90
13405;DHT22;6773;51.192;7.024;2022-09-09T15:53:39;16.90;99.90
13405;DHT22;6773;51.192;7.024;2022-09-09T15:56:05;16.90;99.90
13405;DHT22;6773;51.192;7.024;2022-09-09T15:58:35;17.00;99.90
13405;DHT22;6773;51.192;7.024;2022-09-09T16:01:09;16.90;99.90
13405;DHT22;6773;51.192;7.024;2022-09-09T16:03:40;16.90;99.90
13405;DHT22;6773;51.192;7.024;2022-09-09T16:06:08;16.80;99.90
13405;DHT22;6773;51.192;7.024;2022-09-09T16:08:39;16.80;99.90
13405;DHT22;6773;51.192;7.024;2022-09-09T16:11:16;16.70;99.90
13405;DHT22;6773;51.192;7.024;2022-09-09T16:13:43;16.70;99.90
13405;DHT22;6773;51.192;7.024;2022-09-09T16:16:11;16.70;99.90
13405;DHT22;6773;51.192;7.024;2022-09-09T16:18:42;16.70;99.90
13405;DHT22;6773;51.192;7.024;2022-09-09T16:21:13;16.80;99.90
13405;DHT22;6773;51.192;7.024;2022-09-09T16:26:05;16.90;99.90
13405;DHT22;6773;51.192;7.024;2022-09-09T16:30:57;16.90;99.90
13405;DHT22;6773;51.192;7.024;2022-09-09T16:38:17;16.80;99.90
13405;DHT22;6773;51.192;7.024;2022-09-09T16:40:43;16.70;99.90
13405;DHT22;6773;51.192;7.024;2022-09-09T16:43:08;16.70;99.90
13405;DHT22;6773;51.192;7.024;2022-09-09T16:45:44;16.60;99.90
13405;DHT22;6773;51.192;7.024;2022-09-09T16:48:11;16.60;99.90
13405;DHT22;6773;51.192;7.024;2022-09-09T16:50:37;16.60;99.90
13405;DHT22;6773;51.192;7.024;2022-09-09T16:53:04;16.60;99.90
13405;DHT22;6773;51.192;7.024;2022-09-09T16:55:31;16.60;99.90
13405;DHT22;6773;51.192;7.024;2022-09-09T16:57:57;16.60;99.90
13405;DHT22;6773;51.192;7.024;2022-09-09T17:00:23;16.50;99.90
13405;DHT22;6773;51.192;7.024;2022-09-09T17:02:49;16.50;99.90
13405;DHT22;6773;51.192;7.024;2022-09-09T17:05:14;16.50;99.90
13405;DHT22;6773;51.192;7.024;2022-09-09T17:07:40;16.50;99.90
13405;DHT22;6773;51.192;7.024;2022-09-09T17:10:06;16.50;99.90
13405;DHT22;6773;51.192;7.024;2022-09-09T17:12:32;16.50;99.90
13405;DHT22;6773;51.192;7.024;2022-09-09T17:14:58;16.40;99.90
13405;DHT22;6773;51.192;7.024;2022-09-09T17:17:25;16.40;99.90
13405;DHT22;6773;51.192;7.024;2022-09-09T17:19:52;16.40;99.90
13405;DHT22;6773;51.192;7.024;2022-09-09T17:22:17;16.30;99.90
13405;DHT22;6773;51.192;7.024;2022-09-09T17:24:44;16.30;99.90
13405;DHT22;6773;51.192;7.024;2022-09-09T17:27:10;16.30;99.90
13405;DHT22;6773;51.192;7.024;2022-09-09T17:32:03;16.30;99.90
13405;DHT22;6773;51.192;7.024;2022-09-09T17:34:30;16.30;99.90
13405;DHT22;6773;51.192;7.024;2022-09-09T17:36:56;16.20;99.90
13405;DHT22;6773;51.192;7.024;2022-09-09T17:41:48;16.20;99.90
13405;DHT22;6773;51.192;7.024;2022-09-09T17:44:14;16.20;99.90
13405;DHT22;6773;51.192;7.024;2022-09-09T17:46:42;16.20;99.90
13405;DHT22;6773;51.192;7.024;2022-09-09T17:49:13;16.10;99.90
13405;DHT22;6773;51.192;7.024;2022-09-09T17:51:40;16.00;99.90
13405;DHT22;6773;51.192;7.024;2022-09-09T17:54:12;16.00;99.90
13405;DHT22;6773;51.192;7.024;2022-09-09T17:56:38;16.00;99.90
13405;DHT22;6773;51.192;7.024;2022-09-09T17:59:06;15.90;99.90
13405;DHT22;6773;51.192;7.024;2022-09-09T18:01:35;15.80;99.90
13405;DHT22;6773;51.192;7.024;2022-09-09T18:04:03;15.80;99.90
13405;DHT22;6773;51.192;7.024;2022-09-09T18:06:35;15.80;99.90
13405;DHT22;6773;51.192;7.024;2022-09-09T18:09:04;15.70;99.90
13405;DHT22;6773;51.192;7.024;2022-09-09T18:11:34;15.70;99.90
13405;DHT22;6773;51.192;7.024;2022-09-09T18:14:04;15.70;99.90
13405;DHT22;6773;51.192;7.024;2022-09-09T18:16:32;15.70;99.90
13405;DHT22;6773;51.192;7.024;2022-09-09T18:19:02;15.70;99.90
13405;DHT22;6773;51.192;7.024;2022-09-09T18:21:31;15.70;99.90
13405;DHT22;6773;51.192;7.024;2022-09-09T18:23:59;15.70;99.90
13405;DHT22;6773;51.192;7.024;2022-09-09T18:26:25;15.70;99.90
13405;DHT22;6773;51.192;7.024;2022-09-09T18:28:56;15.70;99.90
13405;DHT22;6773;51.192;7.024;2022-09-09T18:31:24;15.70;99.90
13405;DHT22;6773;51.192;7.024;2022-09-09T18:33:52;15.70;99.90
13405;DHT22;6773;51.192;7.024;2022-09-09T18:36:23;15.80;99.90
13405;DHT22;6773;51.192;7.024;2022-09-09T18:38:49;15.80;99.90
13405;DHT22;6773;51.192;7.024;2022-09-09T18:41:20;15.80;99.90
13405;DHT22;6773;51.192;7.024;2022-09-09T18:43:50;15.80;99.90
13405;DHT22;6773;51.192;7.024;2022-09-09T18:46:17;15.80;99.90
13405;DHT22;6773;51.192;7.024;2022-09-09T18:48:44;15.80;99.90
13405;DHT22;6773;51.192;7.024;2022-09-09T18:51:12;15.80;99.90
13405;DHT22;6773;51.192;7.024;2022-09-09T18:53:38;15.80;99.90
13405;DHT22;6773;51.192;7.024;2022-09-09T18:56:11;15.80;99.90
13405;DHT22;6773;51.192;7.024;2022-09-09T18:58:38;15.80;99.90
13405;DHT22;6773;51.192;7.024;2022-09-09T19:01:05;15.80;99.90
13405;DHT22;6773;51.192;7.024;2022-09-09T19:03:34;15.90;99.90